Bird Island, Minnesota
Current Conditions -  °F | °C
As of 6:14 AM on Sunday 23 Nov 2014 (Local Time) from KOVL Reporting Station
Haze Haze  
Wind Chill: 36°   Ceiling: Unl
Heat Index: 39°   Visibility: 4mi
Dew Point: 37°   Wind: 5mph
Humidity: 93%   Direction: 210°SSW
Pressure: 29.42"   Gusts: NA
Location:  44.77°N, 94.9°W
Report Text: KOVL 231214Z AUTO 21004KT 4SM BR CLR 04/03 A2942 RMK AO2
Loading
Personal Weather Stations






























Interactive Weather Map New forecast layout! Learn more

10-Day Weather Forecast

Advertisements
Track Severe Weather on mobile